Terminal Aerodrome Forecast
Issued by NWS Central Illinois

Home | Current Version | Previous Version | Text Only | Print | Product List | Glossary On
Versions: 1 2 3 4 5 6 7 8 9 10 11 12 13 14 15 16 17 18 19 20 21 22 23 24 25 26 27 28 29 30 31 32
407
FTUS43 KILX 181730
TAFSPI
TAF
KSPI 181730Z 1818/1918 21006KT P6SM BKN015
     FM182100 20007KT P6SM BKN040
     FM190800 15005KT 5SM BR BKN015
     FM191300 13005KT 4SM BR VCSH OVC008=

USA.gov is the U.S. government's official web portal to all federal, state and local government web resources and services.